createdAt,value
2022-09-04T00:01:21.987Z,83.79
2022-09-04T00:03:57.560Z,84.91
2022-09-04T00:06:30.606Z,85.01
2022-09-04T00:09:12.917Z,85.46
2022-09-04T00:11:48.308Z,86.45
2022-09-04T00:14:19.882Z,86.23
2022-09-04T00:16:52.322Z,86.77
2022-09-04T00:19:27.720Z,86.28
2022-09-04T00:21:58.734Z,85.91
2022-09-04T00:24:28.439Z,86.29
2022-09-04T00:26:59.731Z,85.46
2022-09-04T00:29:37.300Z,86.10
2022-09-04T00:32:12.224Z,85.77
2022-09-04T00:34:49.826Z,86.37
2022-09-04T00:37:22.556Z,86.87
2022-09-04T00:39:58.850Z,87.10
2022-09-04T00:42:38.470Z,85.51
2022-09-04T00:45:18.431Z,86.69
2022-09-04T00:48:07.483Z,87.46
2022-09-04T00:50:43.753Z,88.23
2022-09-04T00:53:26.227Z,87.91
2022-09-04T00:56:10.970Z,87.41
2022-09-04T00:58:57.790Z,86.76
2022-09-04T01:01:28.322Z,87.61
2022-09-04T01:04:11.319Z,88.45
2022-09-04T01:06:43.654Z,87.46
2022-09-04T01:09:33.441Z,88.39
2022-09-04T01:12:08.563Z,88.72
2022-09-04T01:14:41.431Z,88.98
2022-09-04T01:17:15.934Z,89.04
2022-09-04T01:19:51.866Z,89.30
2022-09-04T01:22:46.881Z,89.63
2022-09-04T01:25:28.043Z,88.85
2022-09-04T01:28:00.843Z,89.36
2022-09-04T01:30:32.830Z,88.47
2022-09-04T01:33:05.620Z,88.54
2022-09-04T01:35:36.311Z,88.29
2022-09-04T01:38:10.803Z,88.16
2022-09-04T01:40:43.246Z,88.51
2022-09-04T01:43:13.645Z,88.96
2022-09-04T01:45:50.276Z,89.67
2022-09-04T01:48:19.087Z,89.33
2022-09-04T01:50:50.501Z,88.73
2022-09-04T01:53:22.042Z,90.35
2022-09-04T01:55:52.819Z,90.22
2022-09-04T01:58:30.224Z,90.00
2022-09-04T02:01:02.282Z,89.23
2022-09-04T02:03:39.578Z,89.71
2022-09-04T02:06:17.857Z,89.24
2022-09-04T02:09:04.291Z,89.77
2022-09-04T02:11:33.066Z,89.46
2022-09-04T02:14:14.334Z,89.81
2022-09-04T02:16:59.155Z,90.09
2022-09-04T02:19:36.960Z,88.92
2022-09-04T02:22:12.305Z,88.80
2022-09-04T02:24:46.906Z,89.62
2022-09-04T02:27:20.650Z,91.25
2022-09-04T02:29:58.410Z,91.11
2022-09-04T02:32:32.904Z,90.68
2022-09-04T02:35:05.162Z,90.24
2022-09-04T02:37:36.561Z,90.88
2022-09-04T02:40:11.925Z,90.15
2022-09-04T02:42:46.811Z,91.98
2022-09-04T02:45:20.980Z,90.07
2022-09-04T02:47:53.486Z,91.67
2022-09-04T02:50:33.728Z,91.21
2022-09-04T02:53:13.913Z,90.89
2022-09-04T02:55:58.556Z,90.85
2022-09-04T02:58:33.781Z,92.61
2022-09-04T03:01:12.393Z,93.04
2022-09-04T03:03:44.091Z,92.34
2022-09-04T03:06:14.513Z,91.32
2022-09-04T03:08:46.957Z,91.71
2022-09-04T03:11:18.772Z,91.79
2022-09-04T03:13:51.645Z,91.95
2022-09-04T03:16:26.024Z,93.39
2022-09-04T03:19:08.446Z,93.51
2022-09-04T03:21:42.044Z,93.44
2022-09-04T03:24:14.155Z,93.04
2022-09-04T03:26:43.524Z,93.14
2022-09-04T03:29:22.038Z,92.07
2022-09-04T03:31:59.903Z,92.72
2022-09-04T03:34:37.526Z,93.25
2022-09-04T03:37:29.681Z,92.02
2022-09-04T03:40:14.211Z,92.90
2022-09-04T03:42:54.096Z,93.23
2022-09-04T03:45:27.837Z,93.72
2022-09-04T03:48:15.566Z,93.32
2022-09-04T03:50:49.776Z,92.30
2022-09-04T03:53:23.882Z,92.49
2022-09-04T03:56:09.788Z,92.82
2022-09-04T03:58:43.592Z,93.10
2022-09-04T04:01:14.022Z,93.57
2022-09-04T04:04:02.731Z,93.69
2022-09-04T04:06:38.287Z,93.42
2022-09-04T04:09:21.572Z,92.69
2022-09-04T04:12:03.548Z,92.87
2022-09-04T04:14:46.255Z,93.78
2022-09-04T04:17:25.184Z,91.65
2022-09-04T04:20:05.966Z,93.11
2022-09-04T04:22:47.289Z,93.20
2022-09-04T04:25:25.239Z,94.20
2022-09-04T04:28:09.352Z,93.41
2022-09-04T04:30:45.856Z,94.76
2022-09-04T04:33:24.367Z,95.28
2022-09-04T04:36:01.467Z,94.63
2022-09-04T04:38:44.704Z,95.72
2022-09-04T04:41:24.994Z,95.35
2022-09-04T04:44:06.979Z,94.52
2022-09-04T04:46:46.319Z,95.06
2022-09-04T04:49:39.710Z,94.30
2022-09-04T04:52:22.276Z,95.56
2022-09-04T04:54:59.223Z,93.80
2022-09-04T04:57:32.855Z,94.28
2022-09-04T05:00:08.459Z,96.69
2022-09-04T05:02:39.182Z,94.97
2022-09-04T05:05:14.011Z,94.09
2022-09-04T05:07:50.977Z,95.43
2022-09-04T05:10:20.989Z,94.85
2022-09-04T05:12:59.834Z,95.71
2022-09-04T05:15:34.410Z,96.24
2022-09-04T05:18:09.276Z,95.90
2022-09-04T05:20:42.902Z,95.89
2022-09-04T05:23:18.967Z,94.70
2022-09-04T05:25:52.068Z,94.42
2022-09-04T05:28:29.485Z,95.74
2022-09-04T05:31:06.223Z,96.13
2022-09-04T05:33:39.949Z,94.55
2022-09-04T05:36:14.381Z,95.16
2022-09-04T05:38:51.640Z,94.90
2022-09-04T05:41:32.752Z,94.25
2022-09-04T05:44:08.803Z,93.85
2022-09-04T05:46:46.482Z,94.09
2022-09-04T05:49:28.462Z,94.09
2022-09-04T05:52:20.253Z,94.17
2022-09-04T05:55:02.302Z,96.08
2022-09-04T05:57:40.223Z,96.14
2022-09-04T06:00:10.418Z,95.60
2022-09-04T06:02:50.693Z,94.07
2022-09-04T06:05:28.786Z,93.00
2022-09-04T06:08:02.664Z,92.96
2022-09-04T06:10:45.694Z,95.22
2022-09-04T06:13:30.009Z,94.25
2022-09-04T06:16:11.157Z,93.13
2022-09-04T06:18:50.578Z,92.52
2022-09-04T06:21:50.410Z,91.43
2022-09-04T06:24:37.888Z,88.67
2022-09-04T06:27:35.362Z,88.43
2022-09-04T06:30:07.891Z,85.82
2022-09-04T06:33:08.141Z,86.00
2022-09-04T06:35:47.071Z,83.27
2022-09-04T06:38:34.545Z,83.64
2022-09-04T06:41:13.231Z,82.33
2022-09-04T06:43:48.594Z,81.52
2022-09-04T06:46:22.743Z,80.83
2022-09-04T06:49:00.752Z,80.60
2022-09-04T06:51:39.992Z,80.18
2022-09-04T06:54:17.271Z,79.39
2022-09-04T06:56:58.241Z,79.85
2022-09-04T06:59:36.469Z,80.02
2022-09-04T07:02:17.548Z,79.58
2022-09-04T07:04:52.767Z,78.21
2022-09-04T07:07:23.896Z,77.49
2022-09-04T07:10:01.227Z,77.58
2022-09-04T07:12:55.753Z,78.27
2022-09-04T07:15:47.539Z,76.42
2022-09-04T07:18:35.304Z,75.55
2022-09-04T07:21:07.994Z,75.83
2022-09-04T07:23:45.227Z,75.09
2022-09-04T07:26:20.879Z,74.66
2022-09-04T07:29:07.627Z,73.94
2022-09-04T07:31:40.876Z,73.92
2022-09-04T07:34:15.162Z,73.66
2022-09-04T07:36:49.700Z,73.64
2022-09-04T07:39:22.062Z,73.52
2022-09-04T07:41:54.492Z,74.21
2022-09-04T07:44:29.226Z,73.76
2022-09-04T07:47:13.618Z,71.89
2022-09-04T07:49:50.975Z,75.00
2022-09-04T07:52:28.511Z,72.76
2022-09-04T07:55:10.448Z,72.58
2022-09-04T07:57:56.126Z,73.97
2022-09-04T08:00:24.204Z,74.68
2022-09-04T08:03:20.955Z,73.10
2022-09-04T08:05:53.395Z,73.46
2022-09-04T08:08:39.307Z,73.41
2022-09-04T08:11:28.307Z,72.89
2022-09-04T08:14:35.100Z,73.81
2022-09-04T08:17:42.981Z,73.66
2022-09-04T08:20:21.788Z,72.23
2022-09-04T08:22:59.693Z,73.14
2022-09-04T08:25:30.688Z,73.14
2022-09-04T08:28:17.683Z,72.31
2022-09-04T08:30:54.165Z,72.58
2022-09-04T08:33:48.875Z,71.91
2022-09-04T08:36:25.436Z,72.58
2022-09-04T08:39:08.783Z,72.74
2022-09-04T08:42:13.419Z,70.86
2022-09-04T08:45:23.720Z,70.69
2022-09-04T08:48:38.433Z,70.98
2022-09-04T08:51:40.442Z,70.94
2022-09-04T08:54:36.050Z,70.38
2022-09-04T08:57:22.275Z,70.20
2022-09-04T09:00:06.294Z,70.52
2022-09-04T09:02:53.547Z,70.52
2022-09-04T09:05:38.947Z,70.00
2022-09-04T09:08:15.515Z,70.25
2022-09-04T09:11:02.238Z,69.29
2022-09-04T09:14:09.008Z,68.75
2022-09-04T09:16:45.252Z,67.79
2022-09-04T09:19:22.697Z,68.40
2022-09-04T09:22:11.314Z,68.93
2022-09-04T09:25:20.812Z,68.45
2022-09-04T09:28:18.627Z,68.47
2022-09-04T09:31:04.616Z,68.15
2022-09-04T09:34:15.333Z,68.21
2022-09-04T09:37:02.855Z,67.41
2022-09-04T09:39:54.793Z,67.94
2022-09-04T09:42:38.723Z,67.72
2022-09-04T09:45:28.524Z,66.92
2022-09-04T09:48:17.014Z,66.88
2022-09-04T09:51:18.573Z,66.72
2022-09-04T09:54:14.390Z,66.10
2022-09-04T09:57:02.817Z,65.07
2022-09-04T09:59:53.825Z,64.08
2022-09-04T10:03:04.706Z,65.60
2022-09-04T10:06:07.838Z,64.37
2022-09-04T10:09:09.396Z,62.79
2022-09-04T10:12:06.877Z,63.56
2022-09-04T10:14:50.642Z,64.07
2022-09-04T10:17:48.528Z,63.98
2022-09-04T10:20:46.381Z,64.97
2022-09-04T10:23:41.395Z,63.52
2022-09-04T10:26:50.139Z,63.84
2022-09-04T10:29:35.811Z,63.44
2022-09-04T10:32:27.507Z,64.44
2022-09-04T10:35:09.487Z,63.81
2022-09-04T10:37:54.167Z,63.51
2022-09-04T10:40:39.772Z,61.24
2022-09-04T10:43:26.487Z,61.38
2022-09-04T10:46:04.125Z,60.28
2022-09-04T10:48:57.211Z,61.54
2022-09-04T10:51:36.930Z,61.75
2022-09-04T10:54:44.977Z,61.01
2022-09-04T10:57:30.636Z,59.59
2022-09-04T11:00:08.599Z,60.41
2022-09-04T11:03:15.203Z,60.17
2022-09-04T11:06:15.756Z,58.56
2022-09-04T11:09:07.197Z,58.53
2022-09-04T11:11:50.467Z,57.88
2022-09-04T11:14:43.606Z,56.10
2022-09-04T11:17:38.877Z,55.65
2022-09-04T11:20:39.759Z,53.84
2022-09-04T11:23:49.701Z,53.01
2022-09-04T11:26:57.426Z,53.32
2022-09-04T11:29:50.080Z,51.93
2022-09-04T11:32:39.162Z,53.45
2022-09-04T11:35:36.389Z,53.71
2022-09-04T11:38:18.404Z,54.20
2022-09-04T11:41:22.327Z,53.65
2022-09-04T11:44:25.172Z,54.83
2022-09-04T11:47:17.845Z,54.17
2022-09-04T11:50:00.065Z,53.73
2022-09-04T11:52:40.458Z,53.56
2022-09-04T11:55:23.859Z,49.70
2022-09-04T11:58:08.835Z,47.13
2022-09-04T12:00:44.115Z,47.51
2022-09-04T12:03:36.285Z,50.95
2022-09-04T12:06:22.311Z,51.67
2022-09-04T12:09:18.441Z,51.34
2022-09-04T12:12:26.274Z,52.20
2022-09-04T12:15:22.207Z,53.85
2022-09-04T12:18:26.292Z,52.33
2022-09-04T12:21:34.839Z,52.00
2022-09-04T12:24:20.165Z,50.80
2022-09-04T12:27:15.507Z,49.94
2022-09-04T12:30:05.415Z,47.58
2022-09-04T12:32:55.148Z,49.22
2022-09-04T12:35:44.614Z,46.49
2022-09-04T12:38:25.787Z,49.14
2022-09-04T12:41:00.072Z,47.20
2022-09-04T12:43:41.842Z,46.80
2022-09-04T12:46:25.430Z,48.20
2022-09-04T12:49:10.311Z,46.28
2022-09-04T12:51:44.605Z,46.11
2022-09-04T12:54:25.017Z,44.08
2022-09-04T12:57:09.011Z,43.69
2022-09-04T12:59:52.489Z,42.88
2022-09-04T13:02:32.555Z,42.93
2022-09-04T13:05:12.613Z,41.48
2022-09-04T13:07:48.024Z,42.01
2022-09-04T13:10:25.121Z,41.09
2022-09-04T13:13:05.882Z,40.21
2022-09-04T13:15:43.746Z,38.84
2022-09-04T13:18:34.721Z,37.62
2022-09-04T13:21:09.907Z,37.89
2022-09-04T13:24:06.595Z,40.52
2022-09-04T13:26:46.105Z,40.33
2022-09-04T13:29:22.679Z,39.07
2022-09-04T13:32:00.275Z,39.20
2022-09-04T13:34:37.371Z,38.16
2022-09-04T13:37:10.008Z,36.35
2022-09-04T13:39:57.604Z,35.91
2022-09-04T13:43:19.342Z,37.74
2022-09-04T13:45:51.103Z,36.54
2022-09-04T13:48:32.668Z,35.98
2022-09-04T13:51:13.280Z,35.42
2022-09-04T13:53:55.193Z,34.66
2022-09-04T13:56:29.512Z,35.47
2022-09-04T13:59:00.229Z,37.78
2022-09-04T14:01:30.025Z,37.34
2022-09-04T14:04:00.692Z,36.38
2022-09-04T14:06:32.271Z,35.79
2022-09-04T14:09:05.604Z,35.12
2022-09-04T14:11:56.725Z,34.31
2022-09-04T14:14:41.332Z,33.65
2022-09-04T14:17:12.690Z,32.61
2022-09-04T14:19:48.315Z,34.80
2022-09-04T14:22:25.032Z,36.29
2022-09-04T14:25:06.443Z,36.94
2022-09-04T14:27:39.426Z,34.19
2022-09-04T14:30:09.355Z,34.00
2022-09-04T14:32:49.356Z,33.79
2022-09-04T14:35:23.140Z,34.10
2022-09-04T14:38:36.494Z,32.51
2022-09-04T14:41:13.401Z,33.80
2022-09-04T14:43:46.330Z,33.80
2022-09-04T14:46:21.899Z,32.39
2022-09-04T14:49:00.988Z,33.83
2022-09-04T14:51:35.152Z,33.19
2022-09-04T14:54:04.600Z,33.52
2022-09-04T14:56:36.646Z,35.21
2022-09-04T14:59:12.549Z,34.48
2022-09-04T15:01:58.024Z,33.71
2022-09-04T15:04:33.694Z,34.35
2022-09-04T15:07:11.684Z,34.27
2022-09-04T15:09:42.188Z,34.56
2022-09-04T15:12:27.106Z,34.24
2022-09-04T15:14:58.966Z,35.52
2022-09-04T15:17:29.393Z,37.67
2022-09-04T15:20:01.456Z,36.05
2022-09-04T15:22:34.704Z,39.31
2022-09-04T15:25:06.579Z,37.18
2022-09-04T15:27:44.345Z,36.81
2022-09-04T15:30:19.871Z,39.61
2022-09-04T15:32:48.840Z,39.97
2022-09-04T15:35:23.153Z,41.43
2022-09-04T15:37:53.254Z,41.40
2022-09-04T15:40:28.963Z,39.59
2022-09-04T15:43:07.986Z,37.07
2022-09-04T15:45:43.406Z,39.79
2022-09-04T15:48:21.142Z,39.19
2022-09-04T15:50:59.583Z,38.68
2022-09-04T15:53:29.892Z,38.38
2022-09-04T15:56:27.738Z,40.70
2022-09-04T15:59:01.512Z,41.88
2022-09-04T16:01:31.925Z,43.33
2022-09-04T16:04:07.110Z,43.05
2022-09-04T16:06:44.510Z,41.76
2022-09-04T16:09:20.793Z,42.01
2022-09-04T16:11:55.914Z,41.36
2022-09-04T16:14:26.207Z,43.16
2022-09-04T16:16:56.827Z,43.93
2022-09-04T16:19:28.455Z,42.37
2022-09-04T16:22:07.661Z,42.85
2022-09-04T16:25:36.858Z,41.94
2022-09-04T16:28:08.059Z,42.91
2022-09-04T16:30:41.852Z,45.16
2022-09-04T16:33:28.194Z,44.84
2022-09-04T16:36:00.412Z,47.31
2022-09-04T16:38:33.242Z,47.07
2022-09-04T16:41:06.189Z,46.98
2022-09-04T16:43:35.404Z,47.72
2022-09-04T16:46:10.664Z,50.35
2022-09-04T16:48:46.685Z,47.49
2022-09-04T16:51:39.138Z,49.27
2022-09-04T16:54:12.525Z,49.24
2022-09-04T16:56:42.970Z,50.85
2022-09-04T16:59:21.939Z,50.16
2022-09-04T17:01:53.583Z,51.02
2022-09-04T17:04:41.947Z,52.56
2022-09-04T17:07:15.946Z,52.73
2022-09-04T17:09:56.227Z,55.17
2022-09-04T17:12:32.937Z,55.87
2022-09-04T17:15:12.413Z,57.11
2022-09-04T17:17:42.580Z,56.60
2022-09-04T17:20:12.834Z,62.16
2022-09-04T17:28:55.574Z,56.73
2022-09-04T17:29:12.476Z,63.10
2022-09-04T17:29:37.213Z,63.57
2022-09-04T17:32:58.365Z,61.65
2022-09-04T17:40:48.032Z,62.57
2022-09-04T17:40:56.579Z,60.61
2022-09-04T17:41:38.081Z,65.88
2022-09-04T17:44:05.377Z,66.88
2022-09-04T17:46:37.024Z,66.94
2022-09-04T17:49:14.298Z,65.58
2022-09-04T17:51:48.696Z,63.28
2022-09-04T17:54:17.959Z,66.26
2022-09-04T17:56:49.775Z,63.28
2022-09-04T17:59:23.837Z,66.37
2022-09-04T18:02:01.468Z,67.36
2022-09-04T18:04:37.619Z,69.33
2022-09-04T18:07:28.691Z,67.12
2022-09-04T18:10:09.746Z,65.62
2022-09-04T18:12:40.678Z,66.31
2022-09-04T18:15:33.480Z,67.19
2022-09-04T18:18:08.942Z,68.28
2022-09-04T18:20:40.780Z,69.88
2022-09-04T18:23:50.956Z,65.67
2022-09-04T18:26:24.625Z,69.28
2022-09-04T18:29:00.710Z,71.46
2022-09-04T18:37:16.159Z,70.55
2022-09-04T18:37:21.673Z,71.87
2022-09-04T18:37:44.626Z,71.02
2022-09-04T18:40:12.843Z,71.66
2022-09-04T18:50:20.356Z,72.96
2022-09-04T18:50:30.119Z,71.80
2022-09-04T18:50:50.300Z,73.01
2022-09-04T18:51:25.434Z,72.12
2022-09-04T18:53:57.293Z,73.96
2022-09-04T18:56:27.977Z,73.93
2022-09-04T18:59:00.562Z,74.65
2022-09-04T19:01:34.678Z,71.15
2022-09-04T19:04:21.536Z,70.71
2022-09-04T19:06:55.770Z,72.25
2022-09-04T19:09:51.209Z,74.25
2022-09-04T19:12:35.818Z,72.49
2022-09-04T19:15:36.258Z,73.33
2022-09-04T19:18:08.657Z,71.45
2022-09-04T19:20:47.471Z,71.73
2022-09-04T19:23:21.712Z,74.53
2022-09-04T19:25:54.843Z,71.59
2022-09-04T19:28:26.839Z,71.43
2022-09-04T19:30:56.826Z,73.68
2022-09-04T19:33:32.028Z,73.31
2022-09-04T19:36:05.889Z,74.65
2022-09-04T19:45:56.466Z,74.00
2022-09-04T19:46:07.453Z,77.18
2022-09-04T19:46:19.139Z,75.63
2022-09-04T19:47:29.375Z,76.65
2022-09-04T19:53:20.263Z,75.12
2022-09-04T19:53:24.321Z,76.60
2022-09-04T19:55:47.029Z,76.01
2022-09-04T19:58:16.984Z,76.43
2022-09-04T20:00:48.865Z,75.11
2022-09-04T20:03:30.070Z,78.90
2022-09-04T20:06:19.859Z,78.02
2022-09-04T20:08:53.595Z,79.46
2022-09-04T20:11:30.614Z,79.45
2022-09-04T20:14:14.459Z,79.17
2022-09-04T20:16:52.042Z,80.43
2022-09-04T20:19:28.063Z,81.63
2022-09-04T20:22:00.899Z,81.56
2022-09-04T20:24:36.743Z,78.73
2022-09-04T20:27:10.223Z,79.45
2022-09-04T20:29:42.734Z,78.04
2022-09-04T20:32:16.498Z,77.58
2022-09-04T20:35:45.819Z,81.28
2022-09-04T20:38:23.158Z,79.18
2022-09-04T20:40:59.371Z,80.65
2022-09-04T20:43:32.517Z,81.45
2022-09-04T20:51:09.086Z,79.83
2022-09-04T20:52:51.290Z,83.58
2022-09-04T20:52:55.272Z,82.50
2022-09-04T20:54:55.571Z,83.25
2022-09-04T21:00:53.383Z,81.85
2022-09-04T21:03:22.401Z,82.75
2022-09-04T21:03:27.953Z,83.66
2022-09-04T21:06:12.216Z,82.55
2022-09-04T21:08:47.661Z,84.88
2022-09-04T21:11:41.457Z,84.57
2022-09-04T21:14:10.796Z,84.21
2022-09-04T21:16:54.136Z,84.79
2022-09-04T21:19:36.172Z,83.76
2022-09-04T21:22:32.582Z,83.84
2022-09-04T21:25:12.441Z,83.86
2022-09-04T21:28:23.172Z,84.66
2022-09-04T21:31:00.454Z,84.74
2022-09-04T21:33:36.383Z,83.53
2022-09-04T21:36:26.821Z,84.52
2022-09-04T21:39:28.956Z,85.36
2022-09-04T21:42:17.639Z,86.42
2022-09-04T21:45:24.609Z,85.90
2022-09-04T21:48:18.390Z,86.68
2022-09-04T21:50:58.830Z,86.42
2022-09-04T21:53:54.585Z,86.64
2022-09-04T22:00:16.121Z,86.77
2022-09-04T22:02:36.660Z,86.54
2022-09-04T22:03:21.988Z,88.36
2022-09-04T22:05:58.167Z,90.25
2022-09-04T22:13:30.304Z,90.85
2022-09-04T22:13:41.039Z,90.44
2022-09-04T22:14:43.085Z,90.89
2022-09-04T22:17:36.601Z,92.95
2022-09-04T22:20:21.403Z,92.25
2022-09-04T22:23:34.871Z,93.30
2022-09-04T22:26:24.158Z,94.69
2022-09-04T22:29:00.401Z,93.42
2022-09-04T22:32:00.826Z,95.37
2022-09-04T22:34:45.010Z,94.39
2022-09-04T22:37:52.554Z,93.48
2022-09-04T22:40:29.501Z,93.52
2022-09-04T22:43:08.828Z,91.55
2022-09-04T22:45:59.572Z,93.43
2022-09-04T22:49:13.111Z,91.00
2022-09-04T22:52:17.229Z,93.67
2022-09-04T22:54:57.503Z,93.18
2022-09-04T22:57:32.460Z,93.76
2022-09-04T23:00:09.661Z,94.19
2022-09-04T23:03:23.148Z,93.44
2022-09-04T23:07:38.828Z,93.09
2022-09-04T23:13:48.889Z,93.17
2022-09-04T23:13:50.522Z,92.47
2022-09-04T23:15:27.467Z,93.69
2022-09-04T23:20:42.449Z,93.00
2022-09-04T23:26:31.721Z,93.88
2022-09-04T23:26:48.653Z,93.03
2022-09-04T23:27:33.662Z,93.20
2022-09-04T23:30:25.746Z,93.33
2022-09-04T23:33:27.925Z,92.12
2022-09-04T23:36:05.235Z,91.04
2022-09-04T23:39:01.079Z,91.67
2022-09-04T23:41:44.666Z,91.36
2022-09-04T23:44:44.998Z,92.12
2022-09-04T23:47:48.371Z,92.01
2022-09-04T23:50:27.427Z,92.60
2022-09-04T23:53:04.504Z,92.89
2022-09-04T23:55:49.071Z,91.33
2022-09-04T23:58:51.999Z,91.88
